Terminal Aerodrome Forecast
Issued by NWS Sterling, VA

Current Version | Previous Version | Graphics & Text | Print | Product List | Glossary On
Versions: 1 2 3 4 5 6 7 8 9 10 11 12 13 14 15 16 17 18 19 20 21
000
FTUS41 KLWX 270800 AAA
TAFDCA
TAF AMD
KDCA 270838Z 2709/2806 35003KT P6SM SKC
     FM271200 01006KT P6SM SKC
     FM272000 06007KT P6SM SKC=

USA.gov is the U.S. government's official web portal to all federal, state and local government web resources and services.